sensor_id;sensor_type;location;lat;lon;timestamp;pressure;altitude;pressure_sealevel;temperature;humidity
50933;BME280;36921;49.006;9.292;2023-11-19T00:00:07;98812.69;;;7.15;100.00
50933;BME280;36921;49.006;9.292;2023-11-19T00:02:40;98812.69;;;7.15;100.00
50933;BME280;36921;49.006;9.292;2023-11-19T00:05:05;98807.94;;;7.17;100.00
50933;BME280;36921;49.006;9.292;2023-11-19T00:07:37;98800.16;;;7.22;100.00
50933;BME280;36921;49.006;9.292;2023-11-19T00:10:16;98794.78;;;7.22;100.00
50933;BME280;36921;49.006;9.292;2023-11-19T00:12:46;98799.78;;;7.25;100.00
50933;BME280;36921;49.006;9.292;2023-11-19T00:15:13;98803.63;;;7.31;100.00
50933;BME280;36921;49.006;9.292;2023-11-19T00:17:43;98791.66;;;7.34;100.00
50933;BME280;36921;49.006;9.292;2023-11-19T00:20:16;98795.94;;;7.43;100.00
50933;BME280;36921;49.006;9.292;2023-11-19T00:22:42;98792.03;;;7.45;100.00
50933;BME280;36921;49.006;9.292;2023-11-19T00:25:08;98794.91;;;7.44;100.00
50933;BME280;36921;49.006;9.292;2023-11-19T00:27:34;98792.88;;;7.46;100.00
50933;BME280;36921;49.006;9.292;2023-11-19T00:30:00;98783.06;;;7.53;100.00
50933;BME280;36921;49.006;9.292;2023-11-19T00:32:25;98781.03;;;7.55;100.00
50933;BME280;36921;49.006;9.292;2023-11-19T00:34:50;98778.13;;;7.57;100.00
50933;BME280;36921;49.006;9.292;2023-11-19T00:37:16;98784.66;;;7.62;100.00
50933;BME280;36921;49.006;9.292;2023-11-19T00:39:42;98784.44;;;7.64;100.00
50933;BME280;36921;49.006;9.292;2023-11-19T00:42:09;98774.72;;;7.63;100.00
50933;BME280;36921;49.006;9.292;2023-11-19T00:44:35;98785.75;;;7.68;100.00
50933;BME280;36921;49.006;9.292;2023-11-19T00:47:00;98779.19;;;7.71;100.00
50933;BME280;36921;49.006;9.292;2023-11-19T00:49:26;98775.06;;;7.75;100.00
50933;BME280;36921;49.006;9.292;2023-11-19T00:51:51;98779.25;;;7.77;100.00
50933;BME280;36921;49.006;9.292;2023-11-19T00:54:16;98767.94;;;7.82;100.00
50933;BME280;36921;49.006;9.292;2023-11-19T00:56:42;98767.53;;;7.85;100.00
50933;BME280;36921;49.006;9.292;2023-11-19T00:59:07;98756.59;;;7.86;100.00
50933;BME280;36921;49.006;9.292;2023-11-19T01:01:33;98750.63;;;7.91;100.00
50933;BME280;36921;49.006;9.292;2023-11-19T01:03:58;98735.34;;;7.77;100.00
50933;BME280;36921;49.006;9.292;2023-11-19T01:06:30;98735.34;;;7.77;100.00
50933;BME280;36921;49.006;9.292;2023-11-19T01:08:56;98730.31;;;7.74;100.00
50933;BME280;36921;49.006;9.292;2023-11-19T01:11:22;98730.97;;;7.76;100.00
50933;BME280;36921;49.006;9.292;2023-11-19T01:13:48;98731.97;;;7.89;100.00
50933;BME280;36921;49.006;9.292;2023-11-19T01:16:14;98729.00;;;7.84;100.00
50933;BME280;36921;49.006;9.292;2023-11-19T01:18:39;98741.44;;;8.00;100.00
50933;BME280;36921;49.006;9.292;2023-11-19T01:21:05;98723.06;;;7.89;100.00
50933;BME280;36921;49.006;9.292;2023-11-19T01:23:30;98748.31;;;8.03;100.00
50933;BME280;36921;49.006;9.292;2023-11-19T01:25:56;98733.53;;;7.99;100.00
50933;BME280;36921;49.006;9.292;2023-11-19T01:28:21;98727.88;;;7.94;100.00
50933;BME280;36921;49.006;9.292;2023-11-19T01:30:46;98749.84;;;8.12;100.00
50933;BME280;36921;49.006;9.292;2023-11-19T01:33:12;98755.00;;;8.07;100.00
50933;BME280;36921;49.006;9.292;2023-11-19T01:35:37;98741.44;;;8.00;100.00
50933;BME280;36921;49.006;9.292;2023-11-19T01:38:02;98735.00;;;8.01;100.00
50933;BME280;36921;49.006;9.292;2023-11-19T01:40:28;98736.03;;;8.00;100.00
50933;BME280;36921;49.006;9.292;2023-11-19T01:42:53;98747.84;;;7.99;100.00
50933;BME280;36921;49.006;9.292;2023-11-19T01:45:27;98737.97;;;8.06;100.00
50933;BME280;36921;49.006;9.292;2023-11-19T01:47:54;98728.06;;;8.07;100.00
50933;BME280;36921;49.006;9.292;2023-11-19T01:50:20;98728.94;;;8.14;100.00
50933;BME280;36921;49.006;9.292;2023-11-19T01:52:45;98729.34;;;8.11;100.00
50933;BME280;36921;49.006;9.292;2023-11-19T01:55:12;98740.19;;;8.18;100.00
50933;BME280;36921;49.006;9.292;2023-11-19T01:57:37;98709.63;;;8.10;100.00
50933;BME280;36921;49.006;9.292;2023-11-19T02:00:04;98727.72;;;8.17;100.00
50933;BME280;36921;49.006;9.292;2023-11-19T02:02:29;98702.31;;;8.04;100.00
50933;BME280;36921;49.006;9.292;2023-11-19T02:04:55;98717.34;;;8.13;100.00
50933;BME280;36921;49.006;9.292;2023-11-19T02:07:21;98733.22;;;8.23;100.00
50933;BME280;36921;49.006;9.292;2023-11-19T02:09:46;98712.59;;;8.16;100.00
50933;BME280;36921;49.006;9.292;2023-11-19T02:12:12;98717.22;;;8.22;100.00
50933;BME280;36921;49.006;9.292;2023-11-19T02:14:37;98725.56;;;8.27;100.00
50933;BME280;36921;49.006;9.292;2023-11-19T02:17:04;98703.31;;;8.18;100.00
50933;BME280;36921;49.006;9.292;2023-11-19T02:19:29;98726.34;;;8.21;100.00
50933;BME280;36921;49.006;9.292;2023-11-19T02:21:55;98714.25;;;8.17;100.00
50933;BME280;36921;49.006;9.292;2023-11-19T02:24:22;98704.25;;;8.10;100.00
50933;BME280;36921;49.006;9.292;2023-11-19T02:29:25;98721.22;;;8.26;100.00
50933;BME280;36921;49.006;9.292;2023-11-19T02:31:51;98711.44;;;8.25;100.00
50933;BME280;36921;49.006;9.292;2023-11-19T02:34:16;98739.56;;;8.37;100.00
50933;BME280;36921;49.006;9.292;2023-11-19T02:36:41;98706.03;;;8.40;100.00
50933;BME280;36921;49.006;9.292;2023-11-19T02:39:08;98717.91;;;8.45;100.00
50933;BME280;36921;49.006;9.292;2023-11-19T02:41:36;98711.31;;;8.48;100.00
50933;BME280;36921;49.006;9.292;2023-11-19T02:44:01;98714.66;;;8.50;100.00
50933;BME280;36921;49.006;9.292;2023-11-19T02:46:26;98710.53;;;8.54;100.00
50933;BME280;36921;49.006;9.292;2023-11-19T02:48:52;98708.69;;;8.54;100.00
50933;BME280;36921;49.006;9.292;2023-11-19T02:51:17;98697.81;;;8.48;100.00
50933;BME280;36921;49.006;9.292;2023-11-19T02:53:43;98710.75;;;8.52;100.00
50933;BME280;36921;49.006;9.292;2023-11-19T02:56:09;98722.56;;;8.51;100.00
50933;BME280;36921;49.006;9.292;2023-11-19T02:58:44;98714.66;;;8.50;100.00
50933;BME280;36921;49.006;9.292;2023-11-19T03:01:11;98719.97;;;8.43;100.00
50933;BME280;36921;49.006;9.292;2023-11-19T03:03:48;98737.69;;;8.52;100.00
50933;BME280;36921;49.006;9.292;2023-11-19T03:06:19;98712.53;;;8.45;100.00
50933;BME280;36921;49.006;9.292;2023-11-19T03:08:44;98727.56;;;8.54;100.00
50933;BME280;36921;49.006;9.292;2023-11-19T03:11:09;98672.06;;;8.24;100.00
50933;BME280;36921;49.006;9.292;2023-11-19T03:13:34;98660.88;;;8.27;100.00
50933;BME280;36921;49.006;9.292;2023-11-19T03:16:00;98708.94;;;8.60;100.00
50933;BME280;36921;49.006;9.292;2023-11-19T03:18:25;98688.25;;;8.45;100.00
50933;BME280;36921;49.006;9.292;2023-11-19T03:20:50;98694.03;;;8.42;100.00
50933;BME280;36921;49.006;9.292;2023-11-19T03:23:16;98681.94;;;8.38;100.00
50933;BME280;36921;49.006;9.292;2023-11-19T03:25:41;98705.09;;;8.47;100.00
50933;BME280;36921;49.006;9.292;2023-11-19T03:28:06;98693.75;;;8.37;100.00
50933;BME280;36921;49.006;9.292;2023-11-19T03:30:31;98685.44;;;8.53;100.00
50933;BME280;36921;49.006;9.292;2023-11-19T03:32:58;98690.91;;;8.60;100.00
50933;BME280;36921;49.006;9.292;2023-11-19T03:35:24;98687.50;;;8.73;100.00
50933;BME280;36921;49.006;9.292;2023-11-19T03:37:50;98657.09;;;8.64;100.00
50933;BME280;36921;49.006;9.292;2023-11-19T03:40:16;98667.78;;;8.72;100.00
50933;BME280;36921;49.006;9.292;2023-11-19T03:42:41;98666.16;;;8.78;100.00
50933;BME280;36921;49.006;9.292;2023-11-19T03:45:07;98670.78;;;8.84;100.00
50933;BME280;36921;49.006;9.292;2023-11-19T03:47:34;98658.69;;;8.80;100.00
50933;BME280;36921;49.006;9.292;2023-11-19T03:49:59;98664.53;;;8.84;100.00
50933;BME280;36921;49.006;9.292;2023-11-19T03:52:24;98656.88;;;8.87;100.00
50933;BME280;36921;49.006;9.292;2023-11-19T03:54:52;98640.94;;;8.92;100.00
50933;BME280;36921;49.006;9.292;2023-11-19T03:57:17;98647.63;;;8.96;100.00
50933;BME280;36921;49.006;9.292;2023-11-19T03:59:43;98640.94;;;8.92;100.00
50933;BME280;36921;49.006;9.292;2023-11-19T04:02:09;98648.03;;;8.93;100.00
50933;BME280;36921;49.006;9.292;2023-11-19T04:04:35;98644.47;;;8.93;100.00
50933;BME280;36921;49.006;9.292;2023-11-19T04:07:01;98633.88;;;8.91;100.00
50933;BME280;36921;49.006;9.292;2023-11-19T04:09:27;98651.56;;;9.00;100.00
50933;BME280;36921;49.006;9.292;2023-11-19T04:11:53;98648.53;;;9.10;100.00
50933;BME280;36921;49.006;9.292;2023-11-19T04:14:18;98642.91;;;9.05;100.00
50933;BME280;36921;49.006;9.292;2023-11-19T04:16:44;98654.75;;;9.11;100.00
50933;BME280;36921;49.006;9.292;2023-11-19T04:19:10;98643.94;;;9.04;100.00
50933;BME280;36921;49.006;9.292;2023-11-19T04:21:35;98639.22;;;9.13;100.00
50933;BME280;36921;49.006;9.292;2023-11-19T04:24:01;98639.38;;;9.05;100.00
50933;BME280;36921;49.006;9.292;2023-11-19T04:26:26;98659.00;;;9.27;100.00
50933;BME280;36921;49.006;9.292;2023-11-19T04:28:52;98647.63;;;9.31;100.00
50933;BME280;36921;49.006;9.292;2023-11-19T04:31:17;98651.81;;;9.40;100.00
50933;BME280;36921;49.006;9.292;2023-11-19T04:33:42;98645.00;;;9.44;100.00
50933;BME280;36921;49.006;9.292;2023-11-19T04:36:09;98628.38;;;9.41;100.00
50933;BME280;36921;49.006;9.292;2023-11-19T04:38:34;98642.13;;;9.53;100.00
50933;BME280;36921;49.006;9.292;2023-11-19T04:41:00;98638.19;;;9.49;100.00
50933;BME280;36921;49.006;9.292;2023-11-19T04:43:25;98629.63;;;9.45;100.00
50933;BME280;36921;49.006;9.292;2023-11-19T04:45:50;98638.38;;;9.47;100.00
50933;BME280;36921;49.006;9.292;2023-11-19T04:48:16;98645.81;;;9.38;100.00
50933;BME280;36921;49.006;9.292;2023-11-19T04:50:41;98649.56;;;9.44;100.00
50933;BME280;36921;49.006;9.292;2023-11-19T04:53:06;98647.69;;;9.38;100.00
50933;BME280;36921;49.006;9.292;2023-11-19T04:55:31;98658.25;;;9.39;100.00
50933;BME280;36921;49.006;9.292;2023-11-19T04:57:57;98655.97;;;9.43;100.00
50933;BME280;36921;49.006;9.292;2023-11-19T05:00:22;98655.84;;;9.51;100.00
50933;BME280;36921;49.006;9.292;2023-11-19T05:02:48;98660.84;;;9.54;100.00
50933;BME280;36921;49.006;9.292;2023-11-19T05:05:15;98653.75;;;9.47;100.00
50933;BME280;36921;49.006;9.292;2023-11-19T05:07:41;98664.59;;;9.60;100.00
50933;BME280;36921;49.006;9.292;2023-11-19T05:10:06;98652.75;;;9.54;100.00
50933;BME280;36921;49.006;9.292;2023-11-19T05:12:32;98656.09;;;9.56;100.00
50933;BME280;36921;49.006;9.292;2023-11-19T05:14:57;98649.59;;;9.51;100.00
50933;BME280;36921;49.006;9.292;2023-11-19T05:17:23;98667.53;;;9.65;100.00
50933;BME280;36921;49.006;9.292;2023-11-19T05:19:49;98654.63;;;9.60;100.00
50933;BME280;36921;49.006;9.292;2023-11-19T05:22:14;98654.22;;;9.57;100.00
50933;BME280;36921;49.006;9.292;2023-11-19T05:24:39;98655.06;;;9.64;100.00
50933;BME280;36921;49.006;9.292;2023-11-19T05:27:06;98663.00;;;9.72;100.00
50933;BME280;36921;49.006;9.292;2023-11-19T05:29:32;98672.19;;;9.84;100.00
50933;BME280;36921;49.006;9.292;2023-11-19T05:31:58;98627.63;;;9.60;100.00
50933;BME280;36921;49.006;9.292;2023-11-19T05:34:23;98650.75;;;9.70;100.00
50933;BME280;36921;49.006;9.292;2023-11-19T05:36:49;98663.00;;;9.72;100.00
50933;BME280;36921;49.006;9.292;2023-11-19T05:39:16;98643.22;;;9.65;100.00
50933;BME280;36921;49.006;9.292;2023-11-19T05:41:41;98640.56;;;9.78;100.00
50933;BME280;36921;49.006;9.292;2023-11-19T05:44:06;98635.59;;;9.82;100.00
50933;BME280;36921;49.006;9.292;2023-11-19T05:46:31;98638.69;;;9.72;100.00
50933;BME280;36921;49.006;9.292;2023-11-19T05:48:57;98649.56;;;9.85;100.00
50933;BME280;36921;49.006;9.292;2023-11-19T05:51:22;98661.59;;;9.90;100.00
50933;BME280;36921;49.006;9.292;2023-11-19T05:53:49;98656.84;;;9.92;100.00
50933;BME280;36921;49.006;9.292;2023-11-19T05:56:15;98662.69;;;10.02;100.00
50933;BME280;36921;49.006;9.292;2023-11-19T05:58:46;98654.34;;;9.97;100.00
50933;BME280;36921;49.006;9.292;2023-11-19T06:01:13;98656.00;;;9.98;100.00
50933;BME280;36921;49.006;9.292;2023-11-19T06:03:38;98653.53;;;10.03;100.00
50933;BME280;36921;49.006;9.292;2023-11-19T06:06:04;98661.47;;;10.11;100.00
50933;BME280;36921;49.006;9.292;2023-11-19T06:08:30;98659.16;;;10.01;100.00
50933;BME280;36921;49.006;9.292;2023-11-19T06:10:55;98660.63;;;10.04;100.00
50933;BME280;36921;49.006;9.292;2023-11-19T06:13:21;98658.34;;;10.07;100.00
50933;BME280;36921;49.006;9.292;2023-11-19T06:15:46;98668.97;;;10.09;100.00
50933;BME280;36921;49.006;9.292;2023-11-19T06:18:12;98654.59;;;10.08;100.00
50933;BME280;36921;49.006;9.292;2023-11-19T06:20:37;98641.25;;;9.94;100.00
50933;BME280;36921;49.006;9.292;2023-11-19T06:23:03;98653.13;;;10.06;100.00
50933;BME280;36921;49.006;9.292;2023-11-19T06:25:28;98647.34;;;10.16;100.00
50933;BME280;36921;49.006;9.292;2023-11-19T06:27:53;98638.41;;;10.15;100.00
50933;BME280;36921;49.006;9.292;2023-11-19T06:30:19;98659.41;;;10.26;100.00
50933;BME280;36921;49.006;9.292;2023-11-19T06:32:45;98651.31;;;10.26;100.00
50933;BME280;36921;49.006;9.292;2023-11-19T06:35:10;98664.88;;;10.33;100.00
50933;BME280;36921;49.006;9.292;2023-11-19T06:37:38;98664.06;;;10.33;100.00
50933;BME280;36921;49.006;9.292;2023-11-19T06:40:04;98658.22;;;10.29;100.00
50933;BME280;36921;49.006;9.292;2023-11-19T06:42:30;98659.03;;;10.29;100.00
50933;BME280;36921;49.006;9.292;2023-11-19T06:44:55;98659.03;;;10.29;100.00
50933;BME280;36921;49.006;9.292;2023-11-19T06:47:22;98661.53;;;10.31;100.00
50933;BME280;36921;49.006;9.292;2023-11-19T06:49:47;98660.31;;;10.40;100.00
50933;BME280;36921;49.006;9.292;2023-11-19T06:52:12;98660.31;;;10.40;100.00
50933;BME280;36921;49.006;9.292;2023-11-19T06:54:39;98665.97;;;10.45;100.00
50933;BME280;36921;49.006;9.292;2023-11-19T06:57:04;98634.09;;;10.27;100.00
50933;BME280;36921;49.006;9.292;2023-11-19T06:59:30;98654.91;;;10.40;100.00
50933;BME280;36921;49.006;9.292;2023-11-19T07:01:56;98637.84;;;10.33;100.00
50933;BME280;36921;49.006;9.292;2023-11-19T07:04:21;98653.69;;;10.43;100.00
50933;BME280;36921;49.006;9.292;2023-11-19T07:06:47;98653.22;;;10.39;100.00
50933;BME280;36921;49.006;9.292;2023-11-19T07:09:13;98652.00;;;10.48;100.00
50933;BME280;36921;49.006;9.292;2023-11-19T07:11:40;98667.81;;;10.51;100.00
50933;BME280;36921;49.006;9.292;2023-11-19T07:14:06;98681.16;;;10.60;100.00
50933;BME280;36921;49.006;9.292;2023-11-19T07:16:33;98686.97;;;10.57;100.00
50933;BME280;36921;49.006;9.292;2023-11-19T07:19:00;98689.47;;;10.51;100.00
50933;BME280;36921;49.006;9.292;2023-11-19T07:21:25;98709.25;;;10.59;100.00
50933;BME280;36921;49.006;9.292;2023-11-19T07:23:53;98708.63;;;10.63;100.00
50933;BME280;36921;49.006;9.292;2023-11-19T07:26:18;98698.63;;;10.70;100.00
50933;BME280;36921;49.006;9.292;2023-11-19T07:28:43;98694.47;;;10.68;100.00
50933;BME280;36921;49.006;9.292;2023-11-19T07:31:10;98685.31;;;10.75;100.00
50933;BME280;36921;49.006;9.292;2023-11-19T07:33:35;98680.34;;;10.72;100.00
50933;BME280;36921;49.006;9.292;2023-11-19T07:36:00;98686.16;;;10.76;100.00
50933;BME280;36921;49.006;9.292;2023-11-19T07:38:26;98701.13;;;10.79;100.00
50933;BME280;36921;49.006;9.292;2023-11-19T07:40:51;98705.09;;;10.76;100.00
50933;BME280;36921;49.006;9.292;2023-11-19T07:43:16;98699.69;;;10.69;100.00
50933;BME280;36921;49.006;9.292;2023-11-19T07:45:42;98698.44;;;10.59;100.00
50933;BME280;36921;49.006;9.292;2023-11-19T07:48:09;98709.47;;;10.70;100.00
50933;BME280;36921;49.006;9.292;2023-11-19T07:50:34;98705.69;;;10.71;100.00
50933;BME280;36921;49.006;9.292;2023-11-19T07:52:59;98697.81;;;10.70;100.00
50933;BME280;36921;49.006;9.292;2023-11-19T07:55:25;98672.63;;;10.63;100.00
50933;BME280;36921;49.006;9.292;2023-11-19T07:57:50;98701.13;;;10.79;100.00
50933;BME280;36921;49.006;9.292;2023-11-19T08:00:16;98703.66;;;10.80;100.00
50933;BME280;36921;49.006;9.292;2023-11-19T08:02:41;98700.53;;;10.83;100.00
50933;BME280;36921;49.006;9.292;2023-11-19T08:05:07;98697.81;;;10.77;100.00
50933;BME280;36921;49.006;9.292;2023-11-19T08:07:32;98717.41;;;10.85;100.00
50933;BME280;36921;49.006;9.292;2023-11-19T08:09:57;98713.66;;;10.80;100.00
50933;BME280;36921;49.006;9.292;2023-11-19T08:12:22;98714.88;;;10.84;100.00
50933;BME280;36921;49.006;9.292;2023-11-19T08:14:48;98718.41;;;10.84;100.00
50933;BME280;36921;49.006;9.292;2023-11-19T08:17:14;98699.50;;;10.78;100.00
50933;BME280;36921;49.006;9.292;2023-11-19T08:19:39;98703.44;;;10.82;100.00
50933;BME280;36921;49.006;9.292;2023-11-19T08:22:05;98709.06;;;10.80;100.00
50933;BME280;36921;49.006;9.292;2023-11-19T08:24:30;98697.41;;;10.86;100.00
50933;BME280;36921;49.006;9.292;2023-11-19T08:26:55;98696.16;;;10.95;100.00
50933;BME280;36921;49.006;9.292;2023-11-19T08:29:20;98692.19;;;10.91;100.00
50933;BME280;36921;49.006;9.292;2023-11-19T08:31:46;98698.22;;;11.00;100.00
50933;BME280;36921;49.006;9.292;2023-11-19T08:34:11;98704.69;;;11.12;100.00
50933;BME280;36921;49.006;9.292;2023-11-19T08:36:37;98713.63;;;11.19;100.00
50933;BME280;36921;49.006;9.292;2023-11-19T08:39:02;98718.44;;;11.24;100.00
50933;BME280;36921;49.006;9.292;2023-11-19T08:41:28;98705.31;;;11.28;100.00
50933;BME280;36921;49.006;9.292;2023-11-19T08:43:53;98720.91;;;11.26;100.00
50933;BME280;36921;49.006;9.292;2023-11-19T08:46:18;98726.56;;;11.24;100.00
50933;BME280;36921;49.006;9.292;2023-11-19T08:48:44;98724.88;;;11.30;100.00
50933;BME280;36921;49.006;9.292;2023-11-19T08:51:09;98729.66;;;11.28;100.00
50933;BME280;36921;49.006;9.292;2023-11-19T08:53:35;98729.47;;;11.29;100.00
50933;BME280;36921;49.006;9.292;2023-11-19T08:56:00;98738.00;;;11.33;100.00
50933;BME280;36921;49.006;9.292;2023-11-19T08:58:27;98739.88;;;11.46;100.00
50933;BME280;36921;49.006;9.292;2023-11-19T09:00:53;98737.97;;;11.66;100.00
50933;BME280;36921;49.006;9.292;2023-11-19T09:03:18;98731.44;;;11.80;100.00
50933;BME280;36921;49.006;9.292;2023-11-19T09:05:43;98729.69;;;12.13;100.00
50933;BME280;36921;49.006;9.292;2023-11-19T09:08:09;98737.34;;;13.24;100.00
50933;BME280;36921;49.006;9.292;2023-11-19T09:10:36;98692.75;;;14.84;100.00
50933;BME280;36921;49.006;9.292;2023-11-19T09:13:01;98675.88;;;15.18;100.00
50933;BME280;36921;49.006;9.292;2023-11-19T09:15:27;98664.09;;;14.82;100.00
50933;BME280;36921;49.006;9.292;2023-11-19T09:17:52;98670.91;;;16.14;100.00
50933;BME280;36921;49.006;9.292;2023-11-19T09:20:17;98658.66;;;15.88;100.00
50933;BME280;36921;49.006;9.292;2023-11-19T09:22:43;98655.38;;;15.39;100.00
50933;BME280;36921;49.006;9.292;2023-11-19T09:25:08;98680.59;;;15.10;100.00
50933;BME280;36921;49.006;9.292;2023-11-19T09:27:34;98674.66;;;14.78;100.00
50933;BME280;36921;49.006;9.292;2023-11-19T09:29:59;98683.09;;;14.28;100.00
50933;BME280;36921;49.006;9.292;2023-11-19T09:32:25;98693.19;;;13.91;100.00
50933;BME280;36921;49.006;9.292;2023-11-19T09:34:50;98706.38;;;13.25;100.00
50933;BME280;36921;49.006;9.292;2023-11-19T09:37:16;98704.19;;;13.41;100.00
50933;BME280;36921;49.006;9.292;2023-11-19T09:39:41;98717.00;;;13.33;100.00
50933;BME280;36921;49.006;9.292;2023-11-19T09:42:09;98715.44;;;13.19;100.00
50933;BME280;36921;49.006;9.292;2023-11-19T09:44:34;98724.84;;;13.16;100.00
50933;BME280;36921;49.006;9.292;2023-11-19T09:47:01;98727.97;;;12.95;100.00
50933;BME280;36921;49.006;9.292;2023-11-19T09:49:27;98739.53;;;12.84;100.00
50933;BME280;36921;49.006;9.292;2023-11-19T09:51:53;98748.63;;;12.64;100.00
50933;BME280;36921;49.006;9.292;2023-11-19T09:54:19;98745.66;;;12.72;100.00
50933;BME280;36921;49.006;9.292;2023-11-19T09:56:46;98745.28;;;12.94;100.00
50933;BME280;36921;49.006;9.292;2023-11-19T09:59:12;98730.31;;;13.42;100.00
50933;BME280;36921;49.006;9.292;2023-11-19T10:01:38;98717.22;;;14.42;100.00
50933;BME280;36921;49.006;9.292;2023-11-19T10:04:04;98688.78;;;15.57;100.00
50933;BME280;36921;49.006;9.292;2023-11-19T10:06:31;98674.16;;;17.02;100.00
50933;BME280;36921;49.006;9.292;2023-11-19T10:08:56;98669.13;;;17.49;100.00
50933;BME280;36921;49.006;9.292;2023-11-19T10:11:22;98650.47;;;18.56;100.00
50933;BME280;36921;49.006;9.292;2023-11-19T10:13:47;98650.41;;;19.53;100.00
50933;BME280;36921;49.006;9.292;2023-11-19T10:16:13;98645.31;;;16.77;100.00
50933;BME280;36921;49.006;9.292;2023-11-19T10:18:46;98657.03;;;15.28;100.00
50933;BME280;36921;49.006;9.292;2023-11-19T10:21:13;98665.31;;;14.86;100.00
50933;BME280;36921;49.006;9.292;2023-11-19T10:23:52;98658.88;;;14.68;100.00
50933;BME280;36921;49.006;9.292;2023-11-19T10:26:20;98667.56;;;14.89;100.00
50933;BME280;36921;49.006;9.292;2023-11-19T10:28:46;98654.16;;;16.84;100.00
50933;BME280;36921;49.006;9.292;2023-11-19T10:31:15;98630.91;;;16.08;100.00
50933;BME280;36921;49.006;9.292;2023-11-19T10:33:41;98647.41;;;15.72;100.00
50933;BME280;36921;49.006;9.292;2023-11-19T10:36:07;98657.00;;;17.62;100.00
50933;BME280;36921;49.006;9.292;2023-11-19T10:38:33;98639.50;;;18.29;100.00
50933;BME280;36921;49.006;9.292;2023-11-19T10:40:58;98635.22;;;17.89;100.00
50933;BME280;36921;49.006;9.292;2023-11-19T10:43:24;98644.81;;;16.80;100.00
50933;BME280;36921;49.006;9.292;2023-11-19T10:45:50;98641.78;;;16.48;100.00
50933;BME280;36921;49.006;9.292;2023-11-19T10:48:16;98632.69;;;15.85;100.00
50933;BME280;36921;49.006;9.292;2023-11-19T10:50:43;98633.81;;;16.30;100.00
50933;BME280;36921;49.006;9.292;2023-11-19T10:53:11;98630.22;;;16.29;100.00
50933;BME280;36921;49.006;9.292;2023-11-19T10:55:40;98633.84;;;15.89;100.00
50933;BME280;36921;49.006;9.292;2023-11-19T10:58:09;98621.53;;;16.15;100.00
50933;BME280;36921;49.006;9.292;2023-11-19T11:00:48;98608.00;;;16.37;100.00
50933;BME280;36921;49.006;9.292;2023-11-19T11:03:21;98618.59;;;17.96;100.00
50933;BME280;36921;49.006;9.292;2023-11-19T11:05:49;98608.66;;;17.29;100.00
50933;BME280;36921;49.006;9.292;2023-11-19T11:08:15;98612.06;;;16.69;100.00
50933;BME280;36921;49.006;9.292;2023-11-19T11:10:54;98616.31;;;17.10;100.00
50933;BME280;36921;49.006;9.292;2023-11-19T11:13:22;98613.91;;;17.52;100.00
50933;BME280;36921;49.006;9.292;2023-11-19T11:15:49;98588.63;;;18.66;100.00
50933;BME280;36921;49.006;9.292;2023-11-19T11:18:15;98599.03;;;18.09;100.00
50933;BME280;36921;49.006;9.292;2023-11-19T11:20:44;98610.53;;;17.06;100.00
50933;BME280;36921;49.006;9.292;2023-11-19T11:26:46;98588.91;;;17.44;100.00
50933;BME280;36921;49.006;9.292;2023-11-19T11:29:41;98610.34;;;17.52;100.00
50933;BME280;36921;49.006;9.292;2023-11-19T11:32:34;98601.50;;;16.89;100.00
50933;BME280;36921;49.006;9.292;2023-11-19T11:35:16;98609.06;;;16.19;100.00
50933;BME280;36921;49.006;9.292;2023-11-19T11:38:09;98617.34;;;16.41;100.00
50933;BME280;36921;49.006;9.292;2023-11-19T11:40:35;98607.69;;;15.65;100.00
50933;BME280;36921;49.006;9.292;2023-11-19T11:43:01;98609.50;;;15.24;100.00
50933;BME280;36921;49.006;9.292;2023-11-19T11:45:37;98607.69;;;15.53;100.00
50933;BME280;36921;49.006;9.292;2023-11-19T11:50:33;98606.31;;;16.99;100.00
50933;BME280;36921;49.006;9.292;2023-11-19T11:55:51;98583.41;;;16.20;100.00
50933;BME280;36921;49.006;9.292;2023-11-19T11:58:18;98587.44;;;17.36;100.00
50933;BME280;36921;49.006;9.292;2023-11-19T12:00:43;98581.16;;;17.58;100.00
50933;BME280;36921;49.006;9.292;2023-11-19T12:03:09;98584.22;;;16.83;100.00
50933;BME280;36921;49.006;9.292;2023-11-19T12:05:45;98589.56;;;17.12;100.00
50933;BME280;36921;49.006;9.292;2023-11-19T12:08:12;98564.28;;;16.83;100.00
50933;BME280;36921;49.006;9.292;2023-11-19T12:10:56;98574.03;;;17.35;100.00
50933;BME280;36921;49.006;9.292;2023-11-19T12:13:23;98562.34;;;16.83;100.00
50933;BME280;36921;49.006;9.292;2023-11-19T12:18:24;98561.41;;;18.00;100.00
50933;BME280;36921;49.006;9.292;2023-11-19T12:20:51;98553.19;;;18.91;100.00
50933;BME280;36921;49.006;9.292;2023-11-19T12:23:17;98556.47;;;19.83;100.00
50933;BME280;36921;49.006;9.292;2023-11-19T12:25:42;98549.84;;;21.48;100.00
50933;BME280;36921;49.006;9.292;2023-11-19T12:28:14;98536.38;;;22.06;92.97
50933;BME280;36921;49.006;9.292;2023-11-19T12:30:42;98546.53;;;21.56;94.07
50933;BME280;36921;49.006;9.292;2023-11-19T12:33:09;98542.53;;;22.72;95.51
50933;BME280;36921;49.006;9.292;2023-11-19T12:35:41;98530.94;;;21.91;95.23
50933;BME280;36921;49.006;9.292;2023-11-19T12:38:08;98534.38;;;21.67;90.56
50933;BME280;36921;49.006;9.292;2023-11-19T12:40:33;98523.41;;;23.10;82.77
50933;BME280;36921;49.006;9.292;2023-11-19T12:42:59;98521.63;;;23.24;79.33
50933;BME280;36921;49.006;9.292;2023-11-19T12:45:34;98515.66;;;23.36;75.68
50933;BME280;36921;49.006;9.292;2023-11-19T12:48:06;98511.06;;;24.12;73.30
50933;BME280;36921;49.006;9.292;2023-11-19T12:50:51;98506.09;;;23.95;72.17
50933;BME280;36921;49.006;9.292;2023-11-19T12:53:17;98514.66;;;23.03;72.95
50933;BME280;36921;49.006;9.292;2023-11-19T12:55:43;98520.84;;;23.43;68.26
50933;BME280;36921;49.006;9.292;2023-11-19T12:58:08;98520.31;;;23.16;70.23
50933;BME280;36921;49.006;9.292;2023-11-19T13:00:34;98523.72;;;22.74;70.10
50933;BME280;36921;49.006;9.292;2023-11-19T13:02:59;98513.09;;;21.83;77.98
50933;BME280;36921;49.006;9.292;2023-11-19T13:05:28;98518.75;;;22.76;71.84